Time;durP1;ratioP1;P1;durP2;ratioP2;P2;SDS_P1;SDS_P2;PMS_P1;PMS_P2;Temp;Humidity;BMP_temperature;BMP_pressure;BME280_temperature;BME280_humidity;BME280_pressure;Samples;Min_cycle;Max_cycle;Signal;HPM_P1;HPM_P2
2022/05/15 00:00:40;;;;;;;8.90;6.55;;;;;;;19.44;79.04;101023.13;4937569;29;20051;-67
2022/05/15 00:03:13;;;;;;;9.40;5.75;;;;;;;19.42;78.74;101019.88;4937294;29;20047;-67
2022/05/15 00:05:42;;;;;;;10.10;6.55;;;;;;;19.41;79.01;101020.97;4936936;29;20055;-66
2022/05/15 00:08:11;;;;;;;8.18;6.32;;;;;;;19.36;78.88;101020.34;4936281;29;20063;-67
2022/05/15 00:10:41;;;;;;;7.85;5.30;;;;;;;19.37;79.36;101020.03;4936729;29;20384;-67
2022/05/15 00:13:09;;;;;;;10.07;6.00;;;;;;;19.46;79.03;101020.03;4936392;29;20055;-67
2022/05/15 00:15:38;;;;;;;6.78;5.38;;;;;;;19.56;78.42;101022.41;4936649;29;20064;-67
2022/05/15 00:18:07;;;;;;;9.85;6.03;;;;;;;19.64;78.07;101022.75;4936711;29;20052;-67
2022/05/15 00:20:37;;;;;;;13.32;6.57;;;;;;;19.48;79.19;101012.16;4937075;29;20048;-67
2022/05/15 00:23:06;;;;;;;7.20;5.70;;;;;;;19.49;79.45;101015.78;4936153;29;20059;-67
2022/05/15 00:25:35;;;;;;;9.77;6.65;;;;;;;19.34;80.21;101007.63;4936261;29;20051;-67
2022/05/15 00:28:03;;;;;;;9.40;6.75;;;;;;;19.25;80.92;101017.13;4936831;29;20491;-67
2022/05/15 00:30:32;;;;;;;8.50;6.25;;;;;;;19.15;81.40;101021.84;4936741;29;20056;-67
2022/05/15 00:33:01;;;;;;;8.68;6.65;;;;;;;19.07;81.98;101022.69;4936913;29;20054;-67
2022/05/15 00:35:30;;;;;;;9.02;6.75;;;;;;;19.04;82.96;101026.94;4919085;29;20052;-66
2022/05/15 00:37:58;;;;;;;8.02;6.35;;;;;;;19.07;82.30;101023.47;4935442;29;20063;-67
2022/05/15 00:40:26;;;;;;;8.95;6.43;;;;;;;19.04;82.28;101020.56;4919482;29;20051;-67
2022/05/15 00:42:54;;;;;;;9.68;6.55;;;;;;;19.05;82.81;101020.22;4936600;29;20059;-67
2022/05/15 00:45:23;;;;;;;9.73;6.55;;;;;;;19.24;81.16;101021.00;4935947;29;20055;-67
2022/05/15 00:47:51;;;;;;;9.85;7.05;;;;;;;19.30;80.97;101034.41;4935455;29;20051;-67
2022/05/15 00:50:25;;;;;;;13.35;6.80;;;;;;;19.28;81.67;101020.06;4936491;29;20064;-67
2022/05/15 00:52:58;;;;;;;9.00;6.90;;;;;;;19.33;81.19;101028.22;4936281;29;20067;-67
2022/05/15 00:55:48;;;;;;;10.23;6.93;;;;;;;19.25;81.37;101028.22;4934763;29;20439;-67
2022/05/15 00:58:23;;;;;;;10.50;6.90;;;;;;;19.19;81.85;101027.56;4919038;29;20056;-67
2022/05/15 01:00:52;;;;;;;8.05;6.50;;;;;;;19.20;81.99;101034.72;4919091;29;20047;-67
2022/05/15 01:03:20;;;;;;;9.40;6.65;;;;;;;19.26;81.58;101027.88;4918971;29;20063;-67
2022/05/15 01:05:53;;;;;;;12.27;7.78;;;;;;;19.35;81.15;101022.31;4936218;29;20036;-67
2022/05/15 01:08:30;;;;;;;11.00;6.97;;;;;;;19.30;81.19;101019.69;4934494;29;20063;-67
2022/05/15 01:11:05;;;;;;;10.88;7.28;;;;;;;19.19;81.86;101017.28;4934465;29;20048;-67
2022/05/15 01:13:34;;;;;;;12.65;7.30;;;;;;;19.05;83.18;101011.09;4919534;29;20059;-67
2022/05/15 01:16:05;;;;;;;10.55;7.18;;;;;;;18.87;84.38;101022.16;4919084;29;20047;-67
2022/05/15 01:18:36;;;;;;;12.30;6.85;;;;;;;18.82;84.38;101022.31;4918537;29;20052;-67
2022/05/15 01:21:31;;;;;;;11.75;6.95;;;;;;;18.91;83.85;101022.31;4917857;29;20051;-67
2022/05/15 01:24:01;;;;;;;12.55;7.50;;;;;;;18.82;84.29;101018.75;4934475;29;20402;-67
2022/05/15 01:26:33;;;;;;;9.90;6.35;;;;;;;18.78;84.10;101018.56;4918241;29;20059;-67
2022/05/15 01:29:04;;;;;;;10.00;6.93;;;;;;;18.79;84.38;101021.03;4935368;29;20082;-67
2022/05/15 01:31:32;;;;;;;9.50;7.00;;;;;;;18.82;84.27;101021.50;4919067;29;20522;-67
2022/05/15 01:34:00;;;;;;;9.23;7.10;;;;;;;19.02;83.39;101025.59;4918824;29;20506;-67
2022/05/15 01:36:28;;;;;;;10.32;7.20;;;;;;;18.87;84.29;101032.44;4917850;29;20055;-67
2022/05/15 01:38:57;;;;;;;10.48;6.75;;;;;;;18.84;84.32;101027.53;4935320;29;20052;-67
2022/05/15 01:41:26;;;;;;;10.15;7.15;;;;;;;18.88;84.02;101031.28;4918631;29;20051;-67
2022/05/15 01:43:54;;;;;;;9.25;7.00;;;;;;;18.86;84.37;101028.03;4918559;29;20062;-67
2022/05/15 01:46:28;;;;;;;12.73;7.18;;;;;;;18.74;85.28;101032.28;4917837;29;20395;-67
2022/05/15 01:49:00;;;;;;;8.52;6.40;;;;;;;18.87;84.15;101029.66;4917929;29;20056;-67
2022/05/15 01:51:29;;;;;;;9.95;6.72;;;;;;;18.82;84.68;101027.06;4933827;29;20056;-66
2022/05/15 01:53:57;;;;;;;9.63;5.90;;;;;;;18.90;84.19;101023.47;4918238;29;20051;-67
2022/05/15 01:56:25;;;;;;;10.73;6.45;;;;;;;18.91;83.77;101033.41;4935353;29;20062;-67
2022/05/15 01:58:55;;;;;;;11.90;7.22;;;;;;;18.82;84.27;101024.28;4917948;29;20060;-67
2022/05/15 02:01:24;;;;;;;9.85;6.43;;;;;;;18.75;84.46;101022.81;4918019;29;20056;-67
2022/05/15 02:03:51;;;;;;;10.35;6.50;;;;;;;18.61;85.37;101019.34;4917685;29;20055;-67
2022/05/15 02:06:20;;;;;;;9.15;6.68;;;;;;;18.72;84.66;101026.22;4917681;29;20059;-67
2022/05/15 02:08:48;;;;;;;10.18;7.53;;;;;;;18.63;85.03;101031.75;4917927;29;20048;-67
2022/05/15 02:11:16;;;;;;;10.38;7.00;;;;;;;18.61;85.41;101025.72;4933628;29;20063;-67
2022/05/15 02:13:44;;;;;;;10.73;7.00;;;;;;;18.67;85.06;101024.44;4917620;29;20403;-67
2022/05/15 02:16:12;;;;;;;13.55;7.70;;;;;;;18.78;84.40;101019.38;4917639;29;20048;-67
2022/05/15 02:18:40;;;;;;;8.40;6.40;;;;;;;18.83;83.83;101023.97;4935137;29;20687;-67
2022/05/15 02:21:09;;;;;;;9.75;6.82;;;;;;;18.74;84.62;101017.59;4917888;29;20058;-66
2022/05/15 02:23:37;;;;;;;9.73;6.95;;;;;;;18.69;84.87;101017.75;4917723;29;20088;-66
2022/05/15 02:26:06;;;;;;;10.43;6.70;;;;;;;18.59;85.71;101014.16;4917838;29;20051;-66
2022/05/15 02:28:34;;;;;;;8.57;6.47;;;;;;;18.79;85.24;101012.72;4917379;29;20517;-67
2022/05/15 02:31:02;;;;;;;9.48;6.65;;;;;;;18.85;84.34;101006.97;4917971;29;20059;-66
2022/05/15 02:33:33;;;;;;;11.45;6.70;;;;;;;18.88;83.84;101011.88;4934589;29;20411;-66
2022/05/15 02:36:03;;;;;;;9.38;7.03;;;;;;;18.98;83.59;101008.78;4933103;29;20048;-67
2022/05/15 02:38:32;;;;;;;9.77;6.50;;;;;;;19.01;83.34;101012.88;4917192;29;20526;-66
2022/05/15 02:41:00;;;;;;;8.68;6.55;;;;;;;18.92;83.43;101002.59;4917922;29;20040;-66
2022/05/15 02:43:28;;;;;;;8.45;6.80;;;;;;;18.86;83.81;101009.44;4917954;29;20048;-66
2022/05/15 02:45:56;;;;;;;10.88;7.28;;;;;;;18.77;84.78;101005.88;4916757;29;20048;-67
2022/05/15 02:51:13;;;;;;;9.00;6.50;;;;;;;18.75;84.76;101008.13;4934693;29;20056;-66
2022/05/15 02:53:43;;;;;;;11.07;6.68;;;;;;;18.74;84.58;101007.31;4916895;29;20407;-67
2022/05/15 02:56:22;;;;;;;8.10;6.55;;;;;;;18.70;84.87;101011.88;4933912;29;20061;-66
2022/05/15 02:58:50;;;;;;;8.18;6.20;;;;;;;18.70;85.14;101014.66;4938640;29;20051;-66
2022/05/15 03:01:19;;;;;;;9.13;6.35;;;;;;;18.61;85.62;101014.66;4937870;29;20063;-66
2022/05/15 03:03:47;;;;;;;9.20;6.20;;;;;;;18.71;85.08;101013.50;4920448;29;20055;-66
2022/05/15 03:06:16;;;;;;;7.35;5.93;;;;;;;18.72;85.05;101008.78;4937848;29;20070;-66
2022/05/15 03:08:47;;;;;;;9.77;7.18;;;;;;;18.88;83.81;101011.88;4937850;29;20055;-66
2022/05/15 03:11:16;;;;;;;9.95;6.45;;;;;;;18.92;83.34;101008.13;4937890;29;20403;-65
2022/05/15 03:13:44;;;;;;;8.98;6.65;;;;;;;18.93;83.32;101011.72;4937872;29;20051;-66
2022/05/15 03:16:15;;;;;;;7.90;6.00;;;;;;;18.90;83.36;101017.91;4937896;29;20071;-66
2022/05/15 03:18:45;;;;;;;8.88;6.30;;;;;;;18.75;84.65;101002.56;4938169;29;20063;-66
2022/05/15 03:21:28;;;;;;;8.18;6.57;;;;;;;18.64;85.71;101007.63;4938251;29;20051;-66
2022/05/15 03:24:08;;;;;;;10.00;5.75;;;;;;;18.59;85.92;101010.56;4937488;29;20050;-67
2022/05/15 03:26:39;;;;;;;8.20;6.10;;;;;;;18.59;85.57;101018.88;4920764;29;20510;-66
2022/05/15 03:29:09;;;;;;;8.45;6.57;;;;;;;18.72;84.73;101009.59;4937753;29;20047;-66
2022/05/15 03:31:39;;;;;;;9.40;6.88;;;;;;;18.72;84.95;101015.13;4937346;29;20055;-66
2022/05/15 03:34:11;;;;;;;8.60;6.32;;;;;;;18.57;85.84;101010.09;4937246;29;20060;-67
2022/05/15 03:36:40;;;;;;;9.23;6.50;;;;;;;18.49;86.68;101009.75;4937912;29;20048;-66
2022/05/15 03:39:09;;;;;;;9.70;6.60;;;;;;;18.39;87.65;101013.63;4937431;29;20533;-66
2022/05/15 03:41:38;;;;;;;9.82;6.72;;;;;;;18.31;87.38;101008.06;4936129;29;20062;-66
2022/05/15 03:44:06;;;;;;;9.77;6.85;;;;;;;18.32;87.84;101004.97;4937766;29;20078;-66
2022/05/15 03:46:35;;;;;;;12.45;6.68;;;;;;;18.40;86.96;101004.19;4937211;29;20487;-66
2022/05/15 03:49:03;;;;;;;12.07;5.97;;;;;;;18.60;86.40;101006.66;4937178;29;20483;-66
2022/05/15 03:51:32;;;;;;;14.25;6.93;;;;;;;18.55;86.57;100999.31;4920205;29;20052;-66
2022/05/15 03:54:00;;;;;;;9.10;6.20;;;;;;;18.45;86.90;100999.63;4919958;29;20403;-66
2022/05/15 03:59:17;;;;;;;7.03;5.72;;;;;;;18.36;87.16;101002.38;4936690;29;20431;-67
2022/05/15 04:01:46;;;;;;;7.93;5.90;;;;;;;18.32;87.50;101006.94;4936589;29;20503;-66
2022/05/15 04:04:14;;;;;;;9.73;6.47;;;;;;;18.44;86.65;101009.06;4920189;29;20122;-66
2022/05/15 04:06:42;;;;;;;10.13;5.82;;;;;;;18.66;85.89;101005.34;4919241;29;20047;-66
2022/05/15 04:09:10;;;;;;;8.55;5.75;;;;;;;18.70;85.77;101006.34;4918751;29;20051;-66
2022/05/15 04:11:39;;;;;;;8.00;6.05;;;;;;;18.78;84.96;101002.75;4937564;29;20779;-67
2022/05/15 04:14:08;;;;;;;9.27;6.68;;;;;;;18.88;84.08;101014.66;4936265;29;20051;-67
2022/05/15 04:16:36;;;;;;;7.68;5.53;;;;;;;18.83;84.43;101009.28;4936520;29;20487;-66
2022/05/15 04:19:05;;;;;;;9.10;5.47;;;;;;;18.85;84.17;101016.13;4935709;29;20066;-66
2022/05/15 04:21:37;;;;;;;8.73;5.95;;;;;;;18.82;84.76;101019.53;4920128;29;20043;-66
2022/05/15 04:24:08;;;;;;;7.95;6.22;;;;;;;18.77;84.75;101014.19;4934988;29;20056;-66
2022/05/15 04:26:37;;;;;;;8.40;5.45;;;;;;;18.72;85.06;101020.69;4934702;29;20056;-66
2022/05/15 04:29:05;;;;;;;9.68;5.90;;;;;;;18.82;85.02;101024.28;4936331;29;20066;-66
2022/05/15 04:31:34;;;;;;;11.00;5.60;;;;;;;18.86;84.73;101019.72;4936092;29;20051;-66
2022/05/15 04:34:04;;;;;;;10.68;6.07;;;;;;;18.91;84.37;101014.81;4937126;29;20048;-66
2022/05/15 04:36:34;;;;;;;7.03;6.13;;;;;;;18.95;85.17;101023.31;4935848;29;20055;-67
2022/05/15 04:39:03;;;;;;;8.18;6.32;;;;;;;18.99;83.91;101029.84;4935522;29;20056;-66
2022/05/15 04:41:32;;;;;;;9.27;5.82;;;;;;;19.06;83.22;101023.81;4936336;29;20051;-66
2022/05/15 04:44:00;;;;;;;8.68;6.05;;;;;;;19.07;83.95;101034.59;4936860;29;20125;-66
2022/05/15 04:46:29;;;;;;;9.45;6.13;;;;;;;19.14;82.94;101016.63;4935637;29;20040;-66
2022/05/15 04:48:58;;;;;;;9.38;5.78;;;;;;;19.07;83.34;101026.25;4936694;29;20052;-66
2022/05/15 04:51:26;;;;;;;7.07;5.85;;;;;;;19.12;84.50;101032.78;4936638;29;20062;-67
2022/05/15 04:53:54;;;;;;;8.02;5.70;;;;;;;19.18;83.76;101029.53;4935664;29;20070;-67
2022/05/15 04:56:23;;;;;;;8.07;5.75;;;;;;;19.51;81.29;101030.13;4935961;29;20059;-67
2022/05/15 04:58:51;;;;;;;7.40;5.05;;;;;;;19.61;80.95;101038.91;4936219;29;20062;-67
2022/05/15 05:01:19;;;;;;;6.70;5.97;;;;;;;19.66;80.43;101039.88;4935852;29;20050;-67
2022/05/15 05:03:46;;;;;;;7.38;5.93;;;;;;;19.78;80.35;101045.56;4936145;29;20052;-66
2022/05/15 05:06:15;;;;;;;8.63;6.30;;;;;;;19.89;79.75;101048.78;4935144;29;20067;-66
2022/05/15 05:08:43;;;;;;;7.80;5.45;;;;;;;20.12;78.82;101048.56;4935466;29;20062;-67
2022/05/15 05:11:11;;;;;;;8.88;5.95;;;;;;;20.04;78.91;101047.44;4934866;29;20051;-66
2022/05/15 05:13:39;;;;;;;7.30;5.68;;;;;;;20.18;77.89;101044.44;4936151;29;20040;-67
2022/05/15 05:16:07;;;;;;;8.50;5.40;;;;;;;20.23;78.12;101052.59;4935914;29;20048;-67
2022/05/15 05:18:35;;;;;;;8.68;5.15;;;;;;;20.25;77.93;101052.25;4935611;29;20063;-67
2022/05/15 05:21:03;;;;;;;7.88;5.70;;;;;;;20.25;78.01;101055.03;4934679;29;20058;-67
2022/05/15 05:23:32;;;;;;;11.95;5.97;;;;;;;20.39;76.98;101058.38;4935917;29;20059;-67
2022/05/15 05:26:00;;;;;;;8.23;5.50;;;;;;;20.43;77.40;101063.28;4935566;29;20043;-67
2022/05/15 05:28:28;;;;;;;8.80;6.13;;;;;;;20.45;76.90;101058.19;4935468;29;20052;-66
2022/05/15 05:30:57;;;;;;;6.40;5.07;;;;;;;20.40;78.10;101060.00;4935377;29;20062;-67
2022/05/15 05:33:26;;;;;;;8.63;5.50;;;;;;;20.61;77.29;101061.19;4935717;29;20054;-67
2022/05/15 05:35:54;;;;;;;6.75;5.47;;;;;;;20.74;75.98;101053.75;4935235;29;20064;-67
2022/05/15 05:38:22;;;;;;;6.57;4.95;;;;;;;20.94;74.77;101053.00;4935216;29;20055;-67
2022/05/15 05:40:50;;;;;;;9.70;6.32;;;;;;;20.94;74.99;101053.00;4935137;29;20059;-65
2022/05/15 05:43:18;;;;;;;10.75;5.45;;;;;;;21.26;73.44;101062.88;4924073;29;20048;-72
2022/05/15 05:45:46;;;;;;;9.27;5.28;;;;;;;21.28;73.47;101060.53;4901523;29;20048;-74
2022/05/15 05:48:14;;;;;;;8.25;5.07;;;;;;;21.41;73.41;101065.00;4899372;29;20063;-74
2022/05/15 05:50:42;;;;;;;7.20;5.03;;;;;;;21.53;72.92;101055.88;4915043;29;20052;-74
2022/05/15 05:53:13;;;;;;;8.00;5.43;;;;;;;21.60;72.77;101055.31;4899224;29;20060;-74
2022/05/15 05:55:43;;;;;;;7.47;6.20;;;;;;;21.49;75.93;101057.72;4899981;29;20063;-73
2022/05/15 05:58:11;;;;;;;6.78;5.63;;;;;;;21.50;75.20;101066.91;4914665;29;20059;-74
2022/05/15 06:00:39;;;;;;;9.38;5.93;;;;;;;21.56;76.23;101065.53;4883889;29;20068;-72
2022/05/15 06:05:55;;;;;;;8.57;6.55;;;;;;;21.73;74.86;101061.75;4915257;29;20411;-73
2022/05/15 06:08:24;;;;;;;8.93;6.63;;;;;;;21.79;74.71;101062.38;4883594;29;20052;-73
2022/05/15 06:10:52;;;;;;;9.77;6.20;;;;;;;21.92;74.13;101071.53;4899038;29;20063;-73
2022/05/15 06:13:20;;;;;;;8.23;6.38;;;;;;;21.98;73.62;101067.34;4868199;29;20048;-73
2022/05/15 06:15:48;;;;;;;6.80;5.18;;;;;;;22.05;70.40;101070.41;4868443;29;20052;-73
2022/05/15 06:18:16;;;;;;;7.38;6.03;;;;;;;22.12;70.90;101070.63;4868363;29;20052;-72
2022/05/15 06:20:44;;;;;;;7.28;5.70;;;;;;;22.17;69.33;101066.81;4899293;29;20070;-73
2022/05/15 06:23:12;;;;;;;7.80;5.75;;;;;;;22.23;70.97;101067.38;4914830;29;20500;-73
2022/05/15 06:25:40;;;;;;;10.20;6.32;;;;;;;22.29;71.26;101064.00;4924970;29;20054;-73
2022/05/15 06:28:08;;;;;;;7.50;5.78;;;;;;;22.40;70.89;101069.13;4934938;29;20071;-73
2022/05/15 06:30:37;;;;;;;7.85;6.32;;;;;;;22.35;71.93;101069.34;4921380;29;20055;-73
2022/05/15 06:33:06;;;;;;;7.40;5.95;;;;;;;22.49;71.33;101072.59;4900779;29;20048;-73
2022/05/15 06:35:34;;;;;;;9.02;6.82;;;;;;;22.55;69.49;101067.63;4903299;29;20055;-73
2022/05/15 06:38:04;;;;;;;10.57;7.10;;;;;;;22.55;69.88;101079.59;4903324;29;20537;-72
2022/05/15 06:40:33;;;;;;;10.32;6.40;;;;;;;22.70;70.19;101077.25;4903307;29;20052;-73
2022/05/15 06:43:00;;;;;;;8.02;6.55;;;;;;;22.57;70.68;101079.25;4901999;29;20527;-72
2022/05/15 06:45:29;;;;;;;8.25;6.60;;;;;;;22.62;70.85;101078.22;4917742;29;20048;-73
2022/05/15 06:47:57;;;;;;;7.47;6.45;;;;;;;22.58;71.83;101086.44;4903137;29;20041;-73
2022/05/15 06:50:25;;;;;;;9.88;7.13;;;;;;;22.65;71.66;101086.69;4903228;29;20396;-73
2022/05/15 06:52:53;;;;;;;6.78;5.80;;;;;;;22.77;72.57;101076.66;4903422;29;20051;-73
2022/05/15 06:55:23;;;;;;;9.32;7.07;;;;;;;22.71;70.77;101084.44;4903240;29;20045;-74
2022/05/15 06:57:51;;;;;;;10.05;7.25;;;;;;;22.76;70.34;101088.97;4903148;29;20392;-73
2022/05/15 07:00:26;;;;;;;12.10;7.32;;;;;;;22.71;70.23;101084.44;4903120;29;20088;-74
2022/05/15 07:02:55;;;;;;;8.80;6.95;;;;;;;22.79;69.63;101091.06;4903244;29;20044;-71
2022/05/15 07:05:30;;;;;;;8.68;6.45;;;;;;;22.82;68.61;101084.78;4903217;29;20045;-71
2022/05/15 07:07:58;;;;;;;12.65;7.25;;;;;;;22.82;69.53;101087.56;4901638;29;20072;-71
2022/05/15 07:10:26;;;;;;;9.48;7.07;;;;;;;23.00;67.90;101088.13;4903009;29;20052;-70
2022/05/15 07:12:54;;;;;;;10.85;8.13;;;;;;;23.30;69.04;101084.97;4903073;29;20044;-72
2022/05/15 07:15:23;;;;;;;12.02;7.32;;;;;;;23.52;67.26;101080.03;4903038;29;20068;-71
2022/05/15 07:17:51;;;;;;;10.57;6.45;;;;;;;23.85;64.61;101078.91;4903009;29;20048;-72
2022/05/15 07:20:19;;;;;;;11.70;7.95;;;;;;;24.01;64.44;101080.91;4902707;29;20057;-72
2022/05/15 07:22:47;;;;;;;12.88;8.18;;;;;;;23.99;65.15;101080.44;4902723;29;20061;-72
2022/05/15 07:25:15;;;;;;;7.38;6.53;;;;;;;24.22;63.47;101082.63;4902745;29;20064;-72
2022/05/15 07:27:43;;;;;;;12.48;7.15;;;;;;;24.26;62.26;101081.56;4902242;29;20083;-71
2022/05/15 07:30:12;;;;;;;11.30;6.78;;;;;;;24.13;63.56;101086.41;4902414;29;20412;-72
2022/05/15 07:32:45;;;;;;;9.45;6.68;;;;;;;24.36;62.68;101077.38;4902399;29;20052;-72
2022/05/15 07:35:14;;;;;;;9.35;6.40;;;;;;;24.56;60.96;101077.44;4902838;29;20040;-72
2022/05/15 07:37:42;;;;;;;9.05;6.80;;;;;;;24.57;61.37;101081.84;4902785;29;20500;-72
2022/05/15 07:40:11;;;;;;;8.43;6.40;;;;;;;24.81;59.58;101083.63;4902806;29;20056;-72
2022/05/15 07:42:41;;;;;;;10.18;6.60;;;;;;;24.81;59.01;101077.22;4902863;29;20404;-72
2022/05/15 07:45:11;;;;;;;7.90;6.10;;;;;;;25.06;60.32;101079.72;4898896;29;20488;-71
2022/05/15 07:47:39;;;;;;;6.82;5.72;;;;;;;25.17;58.18;101077.97;4899641;29;20061;-72
2022/05/15 07:50:07;;;;;;;7.18;6.32;;;;;;;25.20;57.95;101087.63;4900135;29;20066;-71
2022/05/15 07:52:36;;;;;;;7.55;5.97;;;;;;;25.11;57.88;101078.66;4899622;29;20053;-70
2022/05/15 07:55:11;;;;;;;9.38;5.70;;;;;;;24.89;58.69;101087.41;4899455;29;20048;-70
2022/05/15 07:57:38;;;;;;;8.15;6.07;;;;;;;25.02;59.84;101085.25;4899457;29;20083;-71
2022/05/15 08:00:10;;;;;;;8.85;5.43;;;;;;;25.29;56.06;101084.59;4899469;29;20044;-71
2022/05/15 08:02:41;;;;;;;5.88;4.57;;;;;;;25.52;54.85;101086.63;4899412;29;20060;-70
2022/05/15 08:08:01;;;;;;;6.50;5.65;;;;;;;25.44;55.73;101088.47;4907313;29;20492;-71
2022/05/15 08:10:35;;;;;;;6.68;4.88;;;;;;;25.61;55.15;101076.03;4918180;29;20091;-71
2022/05/15 08:13:04;;;;;;;8.60;5.88;;;;;;;25.32;56.14;101084.66;4918251;29;20048;-71
2022/05/15 08:15:33;;;;;;;10.77;5.82;;;;;;;25.74;55.14;101076.66;4918000;29;20048;-70
2022/05/15 08:23:49;;;;;;;7.57;6.55;;;;;;;25.53;56.94;101074.25;4901286;29;20048;-70
2022/05/15 08:26:18;;;;;;;6.75;5.63;;;;;;;25.98;56.54;101069.06;4917801;29;20056;-70
2022/05/15 08:28:46;;;;;;;9.07;6.45;;;;;;;25.70;55.33;101071.00;4900986;29;20048;-71
2022/05/15 08:31:17;;;;;;;8.18;5.80;;;;;;;26.07;55.48;101072.44;4917797;29;20433;-70
2022/05/15 08:33:47;;;;;;;8.57;5.63;;;;;;;25.98;54.28;101072.69;4916574;29;20070;-71
2022/05/15 08:36:15;;;;;;;9.20;6.25;;;;;;;26.14;54.63;101074.53;4917702;29;20048;-70
2022/05/15 08:38:44;;;;;;;10.00;6.97;;;;;;;25.82;53.51;101066.38;4917990;29;20048;-70
2022/05/15 08:41:30;;;;;;;11.25;6.85;;;;;;;25.61;55.37;101065.63;4917544;29;20067;-70
2022/05/15 08:44:09;;;;;;;8.00;6.35;;;;;;;25.72;56.29;101063.00;4900713;29;20071;-70
2022/05/15 08:46:49;;;;;;;7.78;6.07;;;;;;;25.89;55.11;101060.91;4917536;29;20075;-70
2022/05/15 08:49:17;;;;;;;8.38;6.07;;;;;;;26.11;55.55;101062.09;4917533;29;20052;-71
2022/05/15 08:51:57;;;;;;;8.82;6.57;;;;;;;26.54;52.83;101061.94;4917485;29;20391;-70
2022/05/15 08:54:26;;;;;;;9.48;6.30;;;;;;;26.64;53.59;101062.47;4917399;29;20060;-71
2022/05/15 08:56:54;;;;;;;8.25;6.22;;;;;;;26.39;54.20;101071.34;4917438;29;20491;-70
2022/05/15 08:59:27;;;;;;;13.93;7.40;;;;;;;26.33;52.86;101061.66;4917266;29;20051;-70
2022/05/15 09:01:58;;;;;;;9.88;6.55;;;;;;;26.52;52.35;101060.69;4917595;29;20059;-70
2022/05/15 09:04:29;;;;;;;9.18;6.50;;;;;;;26.84;51.93;101068.78;4916135;29;20051;-69
2022/05/15 09:07:19;;;;;;;7.78;5.97;;;;;;;27.24;50.53;101063.66;4916979;29;20048;-70
2022/05/15 09:10:00;;;;;;;7.68;6.30;;;;;;;27.43;49.72;101067.47;4917071;29;20052;-70
2022/05/15 09:12:30;;;;;;;7.70;6.25;;;;;;;27.43;49.96;101064.66;4917089;29;20052;-70
2022/05/15 09:15:04;;;;;;;8.95;6.30;;;;;;;27.67;51.56;101065.34;4917135;29;20059;-69
2022/05/15 09:17:35;;;;;;;6.22;5.30;;;;;;;27.71;48.98;101069.00;4916941;29;20052;-69
2022/05/15 09:20:24;;;;;;;7.25;5.80;;;;;;;27.76;48.55;101057.41;4916886;29;20487;-70
2022/05/15 09:23:07;;;;;;;9.10;6.03;;;;;;;27.87;49.81;101060.28;4917099;29;20055;-70
2022/05/15 09:25:38;;;;;;;12.57;6.78;;;;;;;27.59;46.91;101059.66;4916761;29;20052;-70
2022/05/15 09:28:12;;;;;;;8.48;6.55;;;;;;;27.54;48.92;101071.22;4916898;29;20048;-70
2022/05/15 09:30:46;;;;;;;9.48;6.38;;;;;;;27.46;49.28;101069.53;4916930;29;20063;-70
2022/05/15 09:33:26;;;;;;;8.15;5.88;;;;;;;27.83;48.32;101068.72;4916497;29;20052;-70
2022/05/15 09:36:19;;;;;;;8.07;5.45;;;;;;;27.86;48.50;101067.13;4898964;29;20047;-68
2022/05/15 09:38:50;;;;;;;8.32;6.35;;;;;;;28.13;46.46;101067.75;4916451;29;20048;-68
2022/05/15 09:44:25;;;;;;;7.80;5.60;;;;;;;28.08;47.61;101065.28;4915833;29;20048;-68
2022/05/15 09:47:01;;;;;;;7.68;5.50;;;;;;;28.02;47.54;101064.03;4916324;29;20059;-69
2022/05/15 09:49:34;;;;;;;7.50;5.70;;;;;;;28.33;45.97;101067.50;4915793;29;20502;-69
2022/05/15 09:52:10;;;;;;;5.53;5.00;;;;;;;28.41;44.80;101071.19;4915921;29;20617;-68
2022/05/15 09:54:40;;;;;;;7.20;5.55;;;;;;;28.61;47.18;101066.06;4914896;29;20063;-69
2022/05/15 09:57:22;;;;;;;6.97;5.07;;;;;;;28.98;46.10;101069.88;4915903;29;20056;-69
2022/05/15 09:59:58;;;;;;;8.00;6.07;;;;;;;28.76;45.32;101069.78;4915772;29;20126;-69
2022/05/15 10:02:27;;;;;;;6.60;5.88;;;;;;;28.84;44.54;101060.16;4915450;29;20052;-69
2022/05/15 10:04:56;;;;;;;6.93;5.72;;;;;;;28.44;46.92;101061.94;4915743;29;20059;-69
2022/05/15 10:07:35;;;;;;;6.18;5.45;;;;;;;28.77;45.98;101064.94;4914958;29;20048;-69
2022/05/15 10:10:19;;;;;;;7.95;6.07;;;;;;;28.65;45.03;101064.09;4914430;29;20048;-69
2022/05/15 10:12:50;;;;;;;;;;;;;;;28.63;46.68;101060.06;4916155;29;20063;-69
2022/05/15 10:15:19;;;;;;;7.65;5.72;;;;;;;28.40;46.86;101055.50;4915283;29;19945;-69
2022/05/15 10:17:53;;;;;;;8.52;5.40;;;;;;;28.55;47.50;101050.75;4915531;29;20048;-69
2022/05/15 10:20:25;;;;;;;;;;;;;;;28.46;47.81;101044.66;4916239;29;20048;-68
2022/05/15 10:23:20;;;;;;;8.77;5.13;;;;;;;28.79;46.83;101046.44;4915894;29;19955;-69
2022/05/15 10:25:48;;;;;;;6.57;5.57;;;;;;;28.37;47.84;101045.84;4883376;29;20063;-69
2022/05/15 10:28:48;;;;;;;7.18;5.60;;;;;;;28.17;47.36;101042.44;4899739;29;20075;-69
2022/05/15 10:31:31;;;;;;;6.82;4.78;;;;;;;28.22;47.36;101039.31;4914454;29;20063;-68
2022/05/15 10:34:03;;;;;;;7.03;5.35;;;;;;;28.08;47.27;101042.78;4889799;29;20503;-69
2022/05/15 10:36:43;;;;;;;5.03;4.35;;;;;;;28.17;48.35;101043.28;4906399;29;20044;-68
2022/05/15 10:39:49;;;;;;;7.68;5.90;;;;;;;28.25;46.08;101037.72;4903653;29;20052;-69
2022/05/15 10:42:40;;;;;;;6.53;5.03;;;;;;;28.18;48.38;101038.44;4876033;29;20048;-69
2022/05/15 10:45:38;;;;;;;6.45;5.38;;;;;;;27.83;47.34;101032.16;4923498;29;20055;-68
2022/05/15 10:48:20;;;;;;;7.75;5.65;;;;;;;27.87;47.48;101032.97;4888651;29;20051;-68
2022/05/15 10:51:11;;;;;;;7.28;5.47;;;;;;;27.95;49.41;101033.06;4874916;29;20078;-68
2022/05/15 11:00:11;;;;;;;6.78;4.55;;;;;;;28.78;45.30;101022.31;4898834;29;20056;-69
2022/05/15 11:03:09;;;;;;;6.45;5.18;;;;;;;28.82;45.44;101014.69;4883327;29;20067;-69
2022/05/15 11:06:22;;;;;;;8.38;5.40;;;;;;;28.78;45.19;101016.69;4867900;29;20059;-69
2022/05/15 11:09:03;;;;;;;8.75;5.10;;;;;;;28.70;44.55;101010.19;4882711;29;20052;-69
2022/05/15 11:11:40;;;;;;;6.93;5.40;;;;;;;28.64;45.73;101020.22;4868218;29;20052;-69
2022/05/15 11:14:50;;;;;;;7.65;5.00;;;;;;;29.06;45.65;101014.38;4898847;29;20063;-69
2022/05/15 11:17:42;;;;;;;6.28;4.90;;;;;;;28.90;46.01;101015.56;4867559;29;20231;-69
2022/05/15 11:20:25;;;;;;;8.52;5.20;;;;;;;28.97;45.49;101014.75;4904054;29;20408;-69
2022/05/15 11:23:19;;;;;;;6.72;4.80;;;;;;;29.06;46.65;101015.19;4906850;29;20052;-68
2022/05/15 11:25:57;;;;;;;5.63;5.13;;;;;;;28.98;45.64;101010.72;4893700;29;20500;-68
2022/05/15 11:28:37;;;;;;;6.10;5.03;;;;;;;29.07;44.05;101016.00;4908189;29;20044;-69
2022/05/15 11:31:30;;;;;;;5.45;4.78;;;;;;;29.22;45.15;101023.28;4914372;29;20384;-69
2022/05/15 11:34:03;;;;;;;6.13;4.72;;;;;;;29.17;46.39;101009.59;4912474;29;20053;-68
2022/05/15 11:36:40;;;;;;;8.27;5.20;;;;;;;29.30;45.28;101006.38;4907077;29;20059;-68
2022/05/15 11:39:15;;;;;;;7.35;5.00;;;;;;;29.12;46.80;101012.00;4924727;29;20044;-68
2022/05/15 11:41:43;;;;;;;6.25;5.07;;;;;;;28.95;44.76;101003.91;4926297;29;20040;-68
2022/05/15 11:44:37;;;;;;;6.22;5.00;;;;;;;29.08;45.15;101003.53;4927390;29;20070;-69
2022/05/15 11:47:34;;;;;;;6.40;5.40;;;;;;;29.23;44.34;101004.38;4910944;29;20044;-69
2022/05/15 11:50:09;;;;;;;7.65;5.38;;;;;;;29.32;44.81;100998.34;4912720;29;20311;-68
2022/05/15 11:53:01;;;;;;;6.47;4.70;;;;;;;29.31;43.50;101003.19;4917256;29;20052;-68
2022/05/15 11:55:47;;;;;;;5.63;5.13;;;;;;;29.36;45.37;100993.50;4926622;29;20051;-68
2022/05/15 11:58:36;;;;;;;8.23;5.07;;;;;;;29.58;43.28;100983.09;4924474;29;20055;-68
2022/05/15 12:01:39;;;;;;;5.90;4.25;;;;;;;29.72;45.20;100973.81;4926551;29;20681;-68
2022/05/15 12:04:36;;;;;;;6.85;4.97;;;;;;;29.96;43.57;100977.00;4926804;29;20784;-68
2022/05/15 12:07:03;;;;;;;8.18;5.25;;;;;;;29.82;44.73;100986.31;4886580;29;20048;-69
2022/05/15 12:09:39;;;;;;;5.18;4.65;;;;;;;30.07;43.20;100979.03;4927347;29;20044;-69
2022/05/15 12:12:31;;;;;;;7.38;5.35;;;;;;;29.83;42.80;100973.81;4925268;29;20043;-68
2022/05/15 12:15:13;;;;;;;5.75;4.70;;;;;;;29.99;41.73;100972.56;4925086;29;20051;-69